Time;durP1;ratioP1;P1;durP2;ratioP2;P2;SDS_P1;SDS_P2;PMS_P1;PMS_P2;Temp;Humidity;BMP_temperature;BMP_pressure;BME280_temperature;BME280_humidity;BME280_pressure;Samples;Min_cycle;Max_cycle;Signal;HPM_P1;HPM_P2
2022/01/22 00:01:46;;;;;;;110.97;43.03;;;;;;;;;;6228450;28;20049;-65
2022/01/22 00:04:48;;;;;;;107.80;42.72;;;;;;;;;;6241233;28;20046;-65
2022/01/22 00:07:49;;;;;;;105.75;42.03;;;;;;;;;;6236715;28;21431;-65
2022/01/22 00:10:52;;;;;;;106.65;41.58;;;;;;;;;;6237673;28;20103;-65
2022/01/22 00:17:14;;;;;;;108.55;42.42;;;;;;;;;;6234262;28;20124;-65
2022/01/22 00:20:17;;;;;;;110.28;42.75;;;;;;;;;;6234684;28;20494;-65
2022/01/22 00:23:20;;;;;;;103.15;43.17;;;;;;;;;;6229911;28;20549;-65
2022/01/22 00:26:22;;;;;;;168.63;74.13;;;;;;;;;;6240258;28;20050;-65
2022/01/22 00:29:25;;;;;;;216.88;91.40;;;;;;;;;;6232024;28;20088;-65
2022/01/22 00:32:27;;;;;;;207.23;85.18;;;;;;;;;;6233977;28;20187;-65
2022/01/22 00:35:28;;;;;;;123.10;51.50;;;;;;;;;;6229428;28;20127;-65
2022/01/22 00:38:30;;;;;;;117.38;44.78;;;;;;;;;;6233317;28;20208;-65
2022/01/22 00:41:32;;;;;;;107.80;44.10;;;;;;;;;;6233816;28;20069;-65
2022/01/22 00:44:34;;;;;;;109.25;44.60;;;;;;;;;;6234853;28;20088;-66
2022/01/22 00:47:36;;;;;;;101.43;42.58;;;;;;;;;;6232297;28;20533;-65
2022/01/22 00:50:38;;;;;;;98.78;41.92;;;;;;;;;;6236779;28;20088;-66
2022/01/22 00:53:39;;;;;;;94.70;40.40;;;;;;;;;;6234392;28;20501;-65
2022/01/22 00:56:41;;;;;;;100.53;41.80;;;;;;;;;;6235781;28;20207;-65
2022/01/22 00:59:44;;;;;;;106.88;43.00;;;;;;;;;;6235246;28;20123;-65
2022/01/22 01:02:46;;;;;;;98.40;42.55;;;;;;;;;;6237156;28;20077;-66
2022/01/22 01:05:48;;;;;;;99.38;42.22;;;;;;;;;;6237885;28;20132;-65
2022/01/22 01:08:49;;;;;;;96.00;41.78;;;;;;;;;;6238506;28;20092;-65
2022/01/22 01:11:56;;;;;;;105.28;42.58;;;;;;;;;;6238548;28;20176;-65
2022/01/22 01:15:13;;;;;;;101.20;41.85;;;;;;;;;;6238858;28;20069;-65
2022/01/22 01:34:58;;;;;;;96.30;40.50;;;;;;;;;;6233403;28;20073;-65
2022/01/22 01:38:01;;;;;;;109.80;43.10;;;;;;;;;;6231200;28;20557;-65
2022/01/22 01:41:11;;;;;;;102.50;41.27;;;;;;;;;;6234787;28;20107;-65
2022/01/22 01:44:13;;;;;;;95.88;39.28;;;;;;;;;;6232630;28;20050;-66
2022/01/22 01:47:17;;;;;;;99.60;40.75;;;;;;;;;;6231381;28;20046;-65
2022/01/22 01:50:19;;;;;;;102.80;42.05;;;;;;;;;;6236436;28;20058;-65
2022/01/22 01:53:31;;;;;;;104.47;42.17;;;;;;;;;;6233442;28;20181;-65
2022/01/22 01:59:53;;;;;;;106.97;40.00;;;;;;;;;;6231176;28;20494;-65
2022/01/22 02:02:58;;;;;;;101.45;40.53;;;;;;;;;;6230943;28;20137;-65
2022/01/22 02:05:59;;;;;;;99.90;39.45;;;;;;;;;;6231565;28;20056;-65
2022/01/22 02:09:02;;;;;;;106.88;38.90;;;;;;;;;;6228595;28;20050;-65
2022/01/22 02:12:10;;;;;;;104.70;40.10;;;;;;;;;;6222123;28;20474;-65
2022/01/22 02:25:15;;;;;;;94.43;40.60;;;;;;;;;;6233060;28;20406;-66
2022/01/22 02:28:17;;;;;;;97.47;38.25;;;;;;;;;;6235228;28;20567;-65
2022/01/22 02:31:27;;;;;;;104.45;37.95;;;;;;;;;;6225020;28;20094;-66
2022/01/22 02:34:37;;;;;;;96.43;36.70;;;;;;;;;;6231051;28;20077;-65
2022/01/22 02:37:46;;;;;;;97.40;38.50;;;;;;;;;;6226342;28;20519;-65
2022/01/22 02:40:49;;;;;;;106.38;40.33;;;;;;;;;;6232258;28;20060;-64
2022/01/22 02:43:52;;;;;;;94.75;38.08;;;;;;;;;;6228296;28;20304;-65
2022/01/22 02:46:54;;;;;;;97.78;39.33;;;;;;;;;;6229789;28;20038;-65
2022/01/22 02:49:55;;;;;;;100.80;39.75;;;;;;;;;;6229935;28;20128;-65
2022/01/22 02:53:02;;;;;;;103.30;40.20;;;;;;;;;;6229785;28;20601;-65
2022/01/22 02:56:03;;;;;;;102.53;40.05;;;;;;;;;;6230092;28;20121;-66
2022/01/22 02:59:05;;;;;;;104.32;39.50;;;;;;;;;;6229667;28;20127;-65
2022/01/22 03:02:12;;;;;;;91.15;37.35;;;;;;;;;;6228004;28;20073;-66
2022/01/22 03:05:13;;;;;;;101.70;39.72;;;;;;;;;;6235007;28;20097;-65
2022/01/22 03:08:16;;;;;;;91.00;36.78;;;;;;;;;;6226759;28;20139;-65
2022/01/22 03:11:21;;;;;;;95.70;37.75;;;;;;;;;;6224582;28;20069;-65
2022/01/22 03:17:58;;;;;;;98.32;36.58;;;;;;;;;;6183933;28;19950;-65
2022/01/22 03:21:07;;;;;;;98.88;37.17;;;;;;;;;;6229381;28;20498;-64
2022/01/22 03:27:31;;;;;;;97.15;37.53;;;;;;;;;;6224701;28;20136;-64
2022/01/22 03:30:33;;;;;;;91.47;37.22;;;;;;;;;;6223627;28;20058;-65
2022/01/22 03:33:35;;;;;;;101.35;38.85;;;;;;;;;;6223001;28;20084;-65
2022/01/22 03:36:37;;;;;;;96.90;37.63;;;;;;;;;;6223947;28;20501;-65
2022/01/22 03:39:40;;;;;;;94.93;35.92;;;;;;;;;;6223277;28;20510;-66
2022/01/22 03:42:42;;;;;;;93.57;38.28;;;;;;;;;;6227241;28;20057;-64
2022/01/22 03:45:44;;;;;;;96.88;37.65;;;;;;;;;;6225057;28;20078;-65
2022/01/22 03:48:46;;;;;;;97.50;38.72;;;;;;;;;;6228736;28;20125;-65
2022/01/22 03:51:48;;;;;;;91.97;36.15;;;;;;;;;;6227296;28;20136;-65
2022/01/22 03:54:51;;;;;;;110.22;41.60;;;;;;;;;;6230832;28;20085;-65
2022/01/22 03:57:53;;;;;;;109.60;41.50;;;;;;;;;;6226767;28;20052;-65
2022/01/22 04:01:12;;;;;;;108.68;40.13;;;;;;;;;;6234697;28;20502;-65
2022/01/22 04:04:17;;;;;;;118.10;41.78;;;;;;;;;;6234101;28;20046;-66
2022/01/22 04:10:36;;;;;;;119.93;40.95;;;;;;;;;;6236020;28;20042;-64
2022/01/22 04:13:38;;;;;;;124.13;40.38;;;;;;;;;;6233978;28;20053;-65
2022/01/22 04:16:45;;;;;;;131.95;42.30;;;;;;;;;;6237132;28;20062;-65
2022/01/22 04:26:35;;;;;;;133.18;41.53;;;;;;;;;;6240307;28;20057;-64
2022/01/22 04:29:37;;;;;;;112.70;40.13;;;;;;;;;;6232959;28;20069;-64
2022/01/22 04:32:39;;;;;;;124.90;41.22;;;;;;;;;;6232781;28;20442;-64
2022/01/22 04:35:40;;;;;;;121.43;39.25;;;;;;;;;;6233901;28;20433;-65
2022/01/22 04:38:42;;;;;;;120.03;41.65;;;;;;;;;;6238937;28;20547;-65
2022/01/22 04:41:45;;;;;;;113.85;41.67;;;;;;;;;;6237722;28;20084;-65
2022/01/22 04:44:55;;;;;;;119.65;40.03;;;;;;;;;;6237397;28;20490;-65
2022/01/22 04:48:11;;;;;;;122.78;40.72;;;;;;;;;;6237401;28;20067;-65
2022/01/22 04:57:52;;;;;;;112.65;38.35;;;;;;;;;;6230719;28;20401;-65
2022/01/22 05:00:54;;;;;;;111.07;37.72;;;;;;;;;;6234643;28;20115;-65
2022/01/22 05:03:55;;;;;;;104.55;36.75;;;;;;;;;;6233109;28;20095;-64
2022/01/22 05:06:57;;;;;;;104.40;37.50;;;;;;;;;;6236155;28;20064;-64
2022/01/22 05:09:59;;;;;;;115.97;38.35;;;;;;;;;;6236803;28;20510;-65
2022/01/22 05:13:02;;;;;;;113.97;38.17;;;;;;;;;;6235599;28;20085;-64
2022/01/22 05:16:03;;;;;;;116.15;38.78;;;;;;;;;;6236243;28;20050;-65
2022/01/22 05:19:11;;;;;;;124.65;41.20;;;;;;;;;;6233769;28;20501;-65
2022/01/22 05:22:23;;;;;;;116.88;39.25;;;;;;;;;;6237577;28;20057;-65
2022/01/22 05:25:30;;;;;;;110.38;40.00;;;;;;;;;;6239525;28;20056;-65
2022/01/22 05:32:19;;;;;;;106.45;37.88;;;;;;;;;;6230074;28;20410;-64
2022/01/22 05:38:40;;;;;;;104.50;37.47;;;;;;;;;;6230940;28;20053;-64
2022/01/22 05:41:42;;;;;;;114.80;36.72;;;;;;;;;;6237748;28;20125;-65
2022/01/22 05:44:45;;;;;;;113.43;37.25;;;;;;;;;;6236248;28;20122;-65
2022/01/22 05:47:47;;;;;;;105.47;37.47;;;;;;;;;;6229847;28;20391;-65
2022/01/22 05:50:52;;;;;;;109.65;38.25;;;;;;;;;;6238100;28;20077;-65
2022/01/22 05:54:17;;;;;;;113.97;38.85;;;;;;;;;;6238589;28;20038;-65
2022/01/22 06:00:39;;;;;;;102.30;34.88;;;;;;;;;;6239663;28;20073;-65
2022/01/22 06:03:41;;;;;;;93.22;34.15;;;;;;;;;;6233833;28;20119;-64
2022/01/22 06:06:42;;;;;;;111.93;36.47;;;;;;;;;;6238445;28;20084;-65
2022/01/22 06:09:55;;;;;;;107.95;37.75;;;;;;;;;;6240093;28;20187;-65
2022/01/22 06:13:11;;;;;;;112.10;37.90;;;;;;;;;;6239122;28;20556;-65
2022/01/22 06:16:16;;;;;;;112.32;39.13;;;;;;;;;;6238012;28;20046;-65
2022/01/22 06:19:18;;;;;;;106.63;36.83;;;;;;;;;;6240262;28;20124;-65
2022/01/22 06:22:19;;;;;;;111.97;36.28;;;;;;;;;;6236377;28;20117;-65
2022/01/22 06:25:21;;;;;;;121.15;38.53;;;;;;;;;;6238488;28;20100;-65
2022/01/22 06:28:23;;;;;;;109.55;36.90;;;;;;;;;;6238626;28;20187;-65
2022/01/22 06:31:26;;;;;;;121.13;38.08;;;;;;;;;;6231272;28;20062;-65
2022/01/22 06:34:27;;;;;;;100.63;34.28;;;;;;;;;;6236542;28;20525;-65
2022/01/22 06:37:29;;;;;;;106.47;34.70;;;;;;;;;;6235807;28;20060;-64
2022/01/22 06:43:50;;;;;;;104.15;35.58;;;;;;;;;;6232430;28;20053;-64
2022/01/22 06:46:55;;;;;;;103.63;32.72;;;;;;;;;;6239366;28;20077;-64
2022/01/22 06:49:57;;;;;;;105.55;33.75;;;;;;;;;;6230932;28;20056;-64
2022/01/22 06:52:59;;;;;;;104.30;34.78;;;;;;;;;;6236379;28;20050;-64
2022/01/22 06:56:02;;;;;;;112.30;34.72;;;;;;;;;;6235147;28;20279;-64
2022/01/22 06:59:06;;;;;;;121.90;38.67;;;;;;;;;;6232178;28;20046;-65
2022/01/22 07:02:09;;;;;;;106.40;36.63;;;;;;;;;;6239060;28;20053;-64
2022/01/22 07:05:11;;;;;;;108.22;35.60;;;;;;;;;;6241843;28;20069;-66
2022/01/22 07:08:12;;;;;;;103.60;35.05;;;;;;;;;;6235619;28;20128;-65
2022/01/22 07:11:14;;;;;;;106.47;34.67;;;;;;;;;;6234087;28;20132;-64
2022/01/22 07:14:16;;;;;;;107.20;36.83;;;;;;;;;;6228373;28;20045;-65
2022/01/22 07:17:19;;;;;;;112.45;36.75;;;;;;;;;;6236757;28;20053;-65
2022/01/22 07:20:27;;;;;;;105.38;35.60;;;;;;;;;;6233708;28;20139;-65
2022/01/22 07:23:55;;;;;;;109.53;37.13;;;;;;;;;;6234698;28;20139;-65
2022/01/22 07:26:55;;;;;;;107.80;35.55;;;;;;;;;;6233662;28;20050;-64
2022/01/22 07:29:57;;;;;;;114.30;37.40;;;;;;;;;;6233283;28;20050;-62
2022/01/22 07:33:00;;;;;;;109.10;35.03;;;;;;;;;;6239332;28;20142;-64
2022/01/22 07:36:02;;;;;;;111.55;37.20;;;;;;;;;;6234707;28;20046;-64
2022/01/22 07:39:04;;;;;;;105.82;36.92;;;;;;;;;;6240254;28;20137;-65
2022/01/22 07:42:06;;;;;;;115.80;38.45;;;;;;;;;;6235071;28;20092;-65
2022/01/22 07:45:09;;;;;;;105.32;35.38;;;;;;;;;;6234251;28;20132;-65
2022/01/22 07:48:12;;;;;;;106.70;35.70;;;;;;;;;;6232597;28;20045;-64
2022/01/22 07:51:14;;;;;;;110.38;38.95;;;;;;;;;;6234729;28;20050;-65
2022/01/22 07:54:16;;;;;;;106.07;37.40;;;;;;;;;;6236198;28;20512;-64
2022/01/22 07:57:18;;;;;;;108.75;36.88;;;;;;;;;;6235663;28;20048;-65
2022/01/22 08:00:19;;;;;;;108.38;37.63;;;;;;;;;;6231672;28;20516;-63
2022/01/22 08:03:23;;;;;;;110.80;37.75;;;;;;;;;;6229811;28;20073;-64
2022/01/22 08:06:25;;;;;;;106.15;36.70;;;;;;;;;;6233349;28;20049;-64
2022/01/22 08:09:27;;;;;;;102.53;36.28;;;;;;;;;;6228786;28;20049;-64
2022/01/22 08:12:29;;;;;;;99.72;36.38;;;;;;;;;;6234512;28;20132;-64
2022/01/22 08:15:30;;;;;;;106.20;36.90;;;;;;;;;;6231439;28;20118;-64
2022/01/22 08:18:33;;;;;;;114.85;37.78;;;;;;;;;;6236884;28;20085;-64
2022/01/22 08:21:35;;;;;;;104.25;36.75;;;;;;;;;;6240288;28;20124;-63
2022/01/22 08:24:36;;;;;;;117.15;38.45;;;;;;;;;;6240247;28;20084;-65
2022/01/22 08:28:52;;;;;;;105.93;35.35;;;;;;;;;;6235436;28;20100;-64
2022/01/22 08:31:15;;;;;;;102.88;38.33;;;;;;;;;;6232512;28;20049;-64
2022/01/22 08:37:37;;;;;;;106.70;38.42;;;;;;;;;;6233710;28;20470;-64
2022/01/22 08:40:39;;;;;;;101.95;38.15;;;;;;;;;;6233533;28;20132;-64
2022/01/22 08:43:41;;;;;;;105.70;39.55;;;;;;;;;;6233061;28;20048;-64
2022/01/22 08:46:43;;;;;;;108.55;39.63;;;;;;;;;;6240033;28;20045;-65
2022/01/22 08:49:46;;;;;;;110.80;40.38;;;;;;;;;;6237585;28;20133;-65
2022/01/22 08:52:47;;;;;;;111.35;37.30;;;;;;;;;;6236140;28;20502;-64
2022/01/22 08:55:49;;;;;;;108.05;39.45;;;;;;;;;;6230145;28;20379;-64
2022/01/22 08:58:50;;;;;;;105.97;38.53;;;;;;;;;;6237831;28;20128;-64
2022/01/22 09:01:52;;;;;;;108.95;38.15;;;;;;;;;;6238735;28;20120;-64
2022/01/22 09:04:55;;;;;;;118.13;38.63;;;;;;;;;;6233015;28;20131;-64
2022/01/22 09:07:57;;;;;;;108.13;38.03;;;;;;;;;;6232949;28;20044;-66
2022/01/22 09:10:59;;;;;;;107.25;39.55;;;;;;;;;;6236541;28;20607;-64
2022/01/22 09:14:01;;;;;;;114.38;40.08;;;;;;;;;;6232987;28;20046;-64
2022/01/22 09:17:04;;;;;;;118.03;39.13;;;;;;;;;;6240819;28;20045;-64
2022/01/22 09:20:13;;;;;;;111.80;40.05;;;;;;;;;;6236029;28;20061;-64
2022/01/22 09:23:15;;;;;;;112.95;39.90;;;;;;;;;;6235115;28;20168;-65
2022/01/22 09:26:18;;;;;;;120.05;41.33;;;;;;;;;;6238540;28;20069;-65
2022/01/22 09:29:20;;;;;;;130.85;42.20;;;;;;;;;;6232758;28;20046;-65
2022/01/22 09:32:22;;;;;;;116.45;39.35;;;;;;;;;;6233410;28;20049;-65
2022/01/22 09:35:25;;;;;;;108.30;38.70;;;;;;;;;;6230275;28;20509;-64
2022/01/22 09:38:26;;;;;;;112.55;37.45;;;;;;;;;;6232674;28;20531;-64
2022/01/22 09:41:28;;;;;;;113.78;38.75;;;;;;;;;;6233412;28;20384;-64
2022/01/22 09:44:30;;;;;;;116.85;39.17;;;;;;;;;;6231249;28;20053;-65
2022/01/22 09:47:32;;;;;;;117.78;40.03;;;;;;;;;;6234992;28;20126;-64
2022/01/22 09:50:36;;;;;;;112.55;39.47;;;;;;;;;;6233518;28;20533;-65
2022/01/22 09:53:41;;;;;;;112.30;38.35;;;;;;;;;;6233784;28;20259;-64
2022/01/22 09:56:44;;;;;;;110.63;37.85;;;;;;;;;;6234280;28;20054;-65
2022/01/22 09:59:46;;;;;;;108.75;34.58;;;;;;;;;;6232765;28;20083;-65
2022/01/22 10:02:50;;;;;;;114.85;38.97;;;;;;;;;;6232271;28;20108;-64
2022/01/22 10:05:53;;;;;;;107.57;37.40;;;;;;;;;;6232948;28;20132;-64
2022/01/22 10:09:06;;;;;;;108.57;38.47;;;;;;;;;;6235019;28;20510;-64
2022/01/22 10:12:10;;;;;;;104.00;38.03;;;;;;;;;;6233653;28;20057;-64
2022/01/22 10:15:13;;;;;;;99.70;36.25;;;;;;;;;;6233566;28;20053;-64
2022/01/22 10:18:19;;;;;;;92.45;35.15;;;;;;;;;;6236435;28;20061;-64
2022/01/22 10:21:22;;;;;;;102.75;37.95;;;;;;;;;;6234913;28;20054;-64
2022/01/22 10:24:31;;;;;;;105.30;39.28;;;;;;;;;;6236734;28;20101;-65
2022/01/22 10:27:34;;;;;;;109.60;37.78;;;;;;;;;;6235317;28;20401;-65
2022/01/22 10:30:38;;;;;;;104.75;36.72;;;;;;;;;;6232751;28;20095;-65
2022/01/22 10:33:40;;;;;;;106.47;36.72;;;;;;;;;;6226800;28;20501;-65
2022/01/22 10:36:57;;;;;;;97.60;36.78;;;;;;;;;;6229051;28;20042;-65
2022/01/22 10:40:19;;;;;;;102.07;37.97;;;;;;;;;;6227523;28;20046;-65
2022/01/22 10:43:28;;;;;;;103.82;39.42;;;;;;;;;;6224001;28;20152;-65
2022/01/22 10:46:43;;;;;;;103.78;36.30;;;;;;;;;;6222165;28;20049;-65
2022/01/22 10:49:44;;;;;;;90.15;36.85;;;;;;;;;;6222491;28;20557;-65
2022/01/22 10:52:49;;;;;;;89.05;35.63;;;;;;;;;;6226295;28;20065;-65
2022/01/22 10:56:00;;;;;;;;;;;;;;;;;;6221169;28;20527;-64
2022/01/22 10:59:04;;;;;;;91.72;36.03;;;;;;;;;;6231998;28;20314;-66
2022/01/22 11:02:06;;;;;;;90.32;36.55;;;;;;;;;;6230481;28;20052;-65
2022/01/22 11:05:09;;;;;;;84.85;35.58;;;;;;;;;;6228809;28;20073;-65
2022/01/22 11:08:13;;;;;;;84.10;36.08;;;;;;;;;;6230291;28;20528;-66
2022/01/22 11:11:15;;;;;;;89.60;36.35;;;;;;;;;;6227901;28;20438;-66
2022/01/22 11:14:17;;;;;;;86.35;38.00;;;;;;;;;;6237072;28;20202;-65
2022/01/22 11:17:21;;;;;;;85.63;36.28;;;;;;;;;;6238996;28;20045;-65
2022/01/22 11:20:24;;;;;;;77.80;35.05;;;;;;;;;;6235856;28;20068;-65
2022/01/22 11:23:27;;;;;;;80.47;37.63;;;;;;;;;;6236371;28;20077;-65
2022/01/22 11:26:29;;;;;;;95.28;39.72;;;;;;;;;;6236512;28;20100;-64
2022/01/22 11:29:35;;;;;;;79.68;36.35;;;;;;;;;;6233184;28;20120;-65
2022/01/22 11:32:42;;;;;;;82.75;38.45;;;;;;;;;;6238589;28;20097;-65
2022/01/22 11:35:51;;;;;;;83.22;39.13;;;;;;;;;;6231350;28;20722;-64
2022/01/22 11:38:56;;;;;;;79.45;37.28;;;;;;;;;;6231943;28;20052;-65
2022/01/22 11:41:59;;;;;;;78.68;38.30;;;;;;;;;;6230332;28;20131;-65
2022/01/22 11:45:25;;;;;;;80.03;37.53;;;;;;;;;;6236519;28;20056;-65
2022/01/22 11:48:27;;;;;;;73.20;36.35;;;;;;;;;;6231454;28;20049;-65
2022/01/22 11:51:30;;;;;;;72.65;37.58;;;;;;;;;;6229366;28;20325;-65
2022/01/22 11:54:49;;;;;;;75.20;35.83;;;;;;;;;;6230567;28;20125;-65
2022/01/22 11:58:06;;;;;;;72.07;35.13;;;;;;;;;;6224314;28;20124;-65
2022/01/22 12:01:07;;;;;;;65.53;33.83;;;;;;;;;;6230865;28;20057;-65
2022/01/22 12:04:10;;;;;;;64.63;33.55;;;;;;;;;;6231828;28;20120;-65
2022/01/22 12:07:14;;;;;;;67.35;34.03;;;;;;;;;;6227370;28;20057;-66
2022/01/22 12:10:21;;;;;;;59.97;31.48;;;;;;;;;;6229196;28;20053;-64
2022/01/22 12:16:49;;;;;;;57.72;32.13;;;;;;;;;;6233018;28;20070;-64
2022/01/22 12:20:04;;;;;;;60.78;33.65;;;;;;;;;;6229105;28;20398;-64
2022/01/22 12:23:07;;;;;;;60.00;32.97;;;;;;;;;;6232793;28;20065;-63
2022/01/22 12:26:10;;;;;;;59.85;33.58;;;;;;;;;;6232286;28;20192;-64
2022/01/22 12:29:41;;;;;;;63.88;34.15;;;;;;;;;;6231233;28;20053;-65
2022/01/22 12:32:44;;;;;;;59.30;33.05;;;;;;;;;;6229766;28;20049;-66
2022/01/22 12:35:47;;;;;;;59.53;32.97;;;;;;;;;;6228706;28;20528;-66
2022/01/22 12:39:02;;;;;;;58.90;31.70;;;;;;;;;;6233172;28;20058;-65
2022/01/22 12:42:11;;;;;;;61.90;33.90;;;;;;;;;;6231752;28;20490;-65
2022/01/22 12:45:13;;;;;;;63.17;33.45;;;;;;;;;;6241126;28;20068;-68
2022/01/22 12:48:15;;;;;;;64.40;33.42;;;;;;;;;;6229786;28;20049;-67
2022/01/22 12:51:17;;;;;;;62.60;32.95;;;;;;;;;;6232969;28;20127;-65
2022/01/22 12:54:27;;;;;;;61.38;32.35;;;;;;;;;;6232472;28;20115;-64
2022/01/22 12:57:30;;;;;;;58.53;30.08;;;;;;;;;;6236168;28;20054;-65
2022/01/22 13:00:32;;;;;;;54.03;29.88;;;;;;;;;;6228885;28;20060;-63
2022/01/22 13:03:35;;;;;;;55.03;29.23;;;;;;;;;;6234692;28;20107;-64
2022/01/22 13:06:39;;;;;;;51.47;28.02;;;;;;;;;;6230109;28;20173;-65
2022/01/22 13:09:43;;;;;;;;;;;;;;;;;;6233989;28;20042;-63
2022/01/22 13:12:47;;;;;;;;;;;;;;;;;;6231425;28;20019;-65
2022/01/22 13:16:01;;;;;;;54.88;29.10;;;;;;;;;;6227876;28;19928;-63
2022/01/22 13:19:02;;;;;;;56.20;29.57;;;;;;;;;;6234796;28;20484;-63
2022/01/22 13:22:04;;;;;;;53.05;29.48;;;;;;;;;;6228191;28;20140;-63
2022/01/22 13:25:08;;;;;;;47.25;27.20;;;;;;;;;;6233406;28;20132;-64
2022/01/22 13:28:13;;;;;;;52.95;29.90;;;;;;;;;;6231532;28;20409;-64
2022/01/22 13:31:17;;;;;;;51.60;27.65;;;;;;;;;;6237788;28;20250;-63
2022/01/22 13:34:30;;;;;;;49.03;28.25;;;;;;;;;;6234322;28;20077;-63
2022/01/22 13:38:14;;;;;;;50.30;28.05;;;;;;;;;;6238488;28;20058;-63
2022/01/22 13:47:56;;;;;;;48.33;26.38;;;;;;;;;;6230048;28;20046;-64
2022/01/22 13:50:58;;;;;;;86.80;47.55;;;;;;;;;;6232098;28;20128;-62
2022/01/22 13:54:01;;;;;;;125.63;74.25;;;;;;;;;;6234180;28;20046;-65
2022/01/22 13:57:05;;;;;;;65.85;35.88;;;;;;;;;;6233293;28;20093;-62
2022/01/22 14:00:15;;;;;;;153.75;71.55;;;;;;;;;;6228288;28;20505;-62
2022/01/22 14:03:29;;;;;;;49.40;29.02;;;;;;;;;;6231738;28;20082;-63
2022/01/22 14:06:32;;;;;;;41.08;24.92;;;;;;;;;;6223044;28;20091;-66
2022/01/22 14:09:34;;;;;;;46.40;25.13;;;;;;;;;;6234269;28;20264;-66
2022/01/22 14:12:51;;;;;;;45.03;25.98;;;;;;;;;;6236449;28;20128;-65
2022/01/22 14:15:54;;;;;;;45.25;25.95;;;;;;;;;;6231607;28;20074;-65
2022/01/22 14:18:56;;;;;;;39.25;23.23;;;;;;;;;;6235981;28;20526;-65
2022/01/22 14:21:57;;;;;;;46.05;25.48;;;;;;;;;;6236390;28;20130;-65
2022/01/22 14:25:12;;;;;;;43.40;24.50;;;;;;;;;;6237341;28;20109;-65
2022/01/22 14:28:14;;;;;;;41.20;23.13;;;;;;;;;;6235247;28;20126;-65
2022/01/22 14:31:24;;;;;;;44.95;23.48;;;;;;;;;;6230585;28;20060;-65
2022/01/22 14:34:33;;;;;;;42.30;23.98;;;;;;;;;;6233510;28;20046;-65
2022/01/22 14:37:34;;;;;;;45.92;24.80;;;;;;;;;;6225959;28;20588;-65
2022/01/22 14:44:13;;;;;;;36.97;23.33;;;;;;;;;;6233303;28;20041;-66
2022/01/22 14:47:17;;;;;;;41.00;23.58;;;;;;;;;;6235276;28;20068;-64
2022/01/22 14:50:19;;;;;;;45.45;25.38;;;;;;;;;;6234683;28;20130;-64
2022/01/22 14:53:21;;;;;;;40.97;24.67;;;;;;;;;;6236655;28;20126;-64
2022/01/22 14:56:23;;;;;;;47.30;23.98;;;;;;;;;;6230755;28;20129;-65
2022/01/22 14:59:24;;;;;;;39.20;22.60;;;;;;;;;;6229757;28;20275;-64
2022/01/22 15:02:27;;;;;;;40.35;22.60;;;;;;;;;;6231225;28;20124;-65
2022/01/22 15:05:29;;;;;;;43.03;22.35;;;;;;;;;;6228592;28;20115;-65
2022/01/22 15:08:30;;;;;;;40.80;23.75;;;;;;;;;;6230509;28;20612;-64
2022/01/22 15:11:33;;;;;;;42.85;23.38;;;;;;;;;;6230370;28;20476;-65
2022/01/22 15:14:35;;;;;;;47.30;23.73;;;;;;;;;;6231787;28;20049;-65
2022/01/22 15:17:55;;;;;;;42.35;24.05;;;;;;;;;;6232565;28;20599;-65
2022/01/22 15:20:56;;;;;;;43.58;24.48;;;;;;;;;;6231120;28;20106;-64
2022/01/22 15:23:58;;;;;;;40.55;23.73;;;;;;;;;;6228589;28;20636;-64
2022/01/22 15:27:00;;;;;;;43.50;24.98;;;;;;;;;;6237780;28;20088;-65
2022/01/22 15:30:11;;;;;;;40.03;22.85;;;;;;;;;;6232339;28;20491;-64
2022/01/22 15:33:21;;;;;;;44.50;23.98;;;;;;;;;;6232100;28;20182;-64
2022/01/22 15:36:22;;;;;;;42.83;24.25;;;;;;;;;;6229369;28;20042;-65
2022/01/22 15:39:24;;;;;;;45.25;24.50;;;;;;;;;;6230511;28;20571;-64
2022/01/22 15:42:26;;;;;;;40.22;23.88;;;;;;;;;;6232650;28;20180;-64
2022/01/22 15:45:31;;;;;;;44.40;24.23;;;;;;;;;;6236717;28;20128;-64
2022/01/22 15:48:34;;;;;;;45.70;24.40;;;;;;;;;;6233705;28;20046;-64
2022/01/22 15:51:36;;;;;;;41.22;24.15;;;;;;;;;;6238302;28;20528;-64
2022/01/22 15:54:39;;;;;;;42.97;23.67;;;;;;;;;;6229476;28;20172;-64
2022/01/22 15:57:41;;;;;;;47.50;26.70;;;;;;;;;;6232828;28;20065;-64
2022/01/22 16:00:43;;;;;;;44.45;24.08;;;;;;;;;;6232740;28;20045;-63
2022/01/22 16:03:54;;;;;;;44.35;25.38;;;;;;;;;;6234541;28;20070;-63
2022/01/22 16:07:06;;;;;;;51.92;26.70;;;;;;;;;;6230518;28;20053;-63
2022/01/22 16:10:08;;;;;;;44.30;25.17;;;;;;;;;;6229497;28;20050;-64
2022/01/22 16:13:10;;;;;;;45.60;24.52;;;;;;;;;;6231457;28;20419;-65
2022/01/22 16:16:12;;;;;;;42.80;24.60;;;;;;;;;;6228607;28;20052;-65
2022/01/22 16:19:16;;;;;;;43.22;25.50;;;;;;;;;;6234853;28;20506;-65
2022/01/22 16:22:21;;;;;;;44.20;24.55;;;;;;;;;;6235128;28;20352;-64
2022/01/22 16:25:23;;;;;;;45.35;24.70;;;;;;;;;;6232559;28;20057;-65
2022/01/22 16:28:25;;;;;;;43.50;25.77;;;;;;;;;;6237001;28;20080;-67
2022/01/22 16:31:29;;;;;;;40.15;23.95;;;;;;;;;;6225185;28;20096;-67
2022/01/22 16:34:33;;;;;;;48.58;25.58;;;;;;;;;;6224519;28;20054;-66
2022/01/22 16:37:36;;;;;;;45.55;24.67;;;;;;;;;;6229297;28;20081;-65
2022/01/22 16:40:38;;;;;;;45.85;25.30;;;;;;;;;;6231328;28;20534;-65
2022/01/22 16:43:48;;;;;;;45.63;25.05;;;;;;;;;;6230446;28;20116;-65
2022/01/22 16:51:18;;;;;;;44.85;23.92;;;;;;;;;;6227691;28;20385;-67
2022/01/22 16:56:54;;;;;;;44.50;24.45;;;;;;;;;;6220077;28;20136;-66
2022/01/22 17:00:00;;;;;;;;;;;;;;;;;;6222230;28;20045;-67
2022/01/22 17:03:06;;;;;;;43.50;24.35;;;;;;;;;;6225465;28;19926;-65
2022/01/22 17:06:10;;;;;;;41.00;23.73;;;;;;;;;;6221964;28;20050;-65
2022/01/22 17:09:59;;;;;;;41.30;24.30;;;;;;;;;;6223629;28;20085;-67
2022/01/22 17:15:54;;;;;;;45.58;24.65;;;;;;;;;;6227983;28;20487;-65
2022/01/22 17:18:55;;;;;;;45.85;25.17;;;;;;;;;;6231499;28;20509;-66
2022/01/22 17:22:00;;;;;;;46.03;25.15;;;;;;;;;;6231123;28;20120;-66
2022/01/22 17:25:01;;;;;;;47.15;25.63;;;;;;;;;;6233638;28;20115;-65
2022/01/22 17:28:04;;;;;;;51.50;25.45;;;;;;;;;;6233669;28;20450;-65
2022/01/22 17:31:06;;;;;;;47.67;25.58;;;;;;;;;;6229457;28;20092;-65
2022/01/22 17:34:08;;;;;;;51.00;26.73;;;;;;;;;;6230649;28;20128;-66
2022/01/22 17:37:10;;;;;;;47.78;25.67;;;;;;;;;;6229859;28;20686;-65
2022/01/22 17:40:13;;;;;;;43.17;24.85;;;;;;;;;;6232694;28;20183;-65
2022/01/22 17:43:15;;;;;;;45.97;25.67;;;;;;;;;;6233781;28;20045;-65
2022/01/22 17:46:17;;;;;;;45.22;25.10;;;;;;;;;;6228614;28;20065;-66
2022/01/22 17:49:18;;;;;;;46.40;25.40;;;;;;;;;;6235085;28;20463;-66
2022/01/22 17:52:21;;;;;;;45.33;25.58;;;;;;;;;;6233102;28;20136;-66
2022/01/22 17:55:23;;;;;;;41.72;24.83;;;;;;;;;;6231456;28;20852;-66
2022/01/22 17:58:26;;;;;;;45.90;25.85;;;;;;;;;;6230272;28;20053;-66
2022/01/22 18:01:28;;;;;;;47.80;26.10;;;;;;;;;;6228333;28;20046;-67
2022/01/22 18:04:30;;;;;;;39.22;22.92;;;;;;;;;;6227088;28;20059;-65
2022/01/22 18:07:33;;;;;;;42.90;25.20;;;;;;;;;;6230123;28;20061;-65
2022/01/22 18:10:39;;;;;;;43.45;24.30;;;;;;;;;;6228785;28;20257;-65
2022/01/22 18:13:40;;;;;;;46.40;25.58;;;;;;;;;;6229907;28;20548;-65
2022/01/22 18:16:42;;;;;;;44.10;24.73;;;;;;;;;;6231600;28;20073;-66
2022/01/22 18:19:44;;;;;;;42.88;24.00;;;;;;;;;;6228062;28;20583;-65
2022/01/22 18:22:47;;;;;;;41.55;24.38;;;;;;;;;;6233911;28;20559;-65
2022/01/22 18:25:48;;;;;;;44.95;24.65;;;;;;;;;;6235201;28;20615;-66
2022/01/22 18:28:50;;;;;;;43.67;23.20;;;;;;;;;;6232105;28;20161;-65
2022/01/22 18:31:53;;;;;;;45.22;24.73;;;;;;;;;;6235385;28;20128;-66
2022/01/22 18:34:55;;;;;;;41.78;24.33;;;;;;;;;;6233653;28;20324;-66
2022/01/22 18:37:58;;;;;;;42.75;23.92;;;;;;;;;;6234071;28;20068;-66
2022/01/22 18:41:02;;;;;;;45.50;25.10;;;;;;;;;;6234499;28;20183;-66
2022/01/22 18:44:05;;;;;;;43.60;25.00;;;;;;;;;;6236465;28;20108;-67
2022/01/22 18:47:07;;;;;;;42.00;24.05;;;;;;;;;;6234450;28;20045;-66
2022/01/22 18:50:10;;;;;;;43.35;23.92;;;;;;;;;;6233630;28;20410;-66
2022/01/22 18:53:17;;;;;;;43.30;23.80;;;;;;;;;;6235242;28;20080;-67
2022/01/22 18:56:18;;;;;;;45.17;23.50;;;;;;;;;;6233413;28;20406;-66
2022/01/22 18:59:20;;;;;;;41.55;22.70;;;;;;;;;;6231838;28;20066;-66
2022/01/22 19:02:22;;;;;;;38.88;22.38;;;;;;;;;;6228248;28;20469;-66
2022/01/22 19:05:25;;;;;;;38.35;23.25;;;;;;;;;;6229928;28;20057;-65
2022/01/22 19:08:30;;;;;;;40.25;23.15;;;;;;;;;;6233281;28;20073;-67
2022/01/22 19:11:32;;;;;;;39.92;23.63;;;;;;;;;;6232756;28;20061;-65
2022/01/22 19:14:33;;;;;;;40.63;23.50;;;;;;;;;;6233801;28;20128;-66
2022/01/22 19:17:35;;;;;;;39.38;23.15;;;;;;;;;;6231767;28;20479;-66
2022/01/22 19:20:38;;;;;;;44.70;23.90;;;;;;;;;;6240871;28;20445;-65
2022/01/22 19:23:47;;;;;;;40.63;21.98;;;;;;;;;;6242171;28;20599;-66
2022/01/22 19:30:09;;;;;;;40.10;22.27;;;;;;;;;;6235885;28;20054;-66